CheckWX is a tool to help pilots better visualize weather data.  It is not intended as a substitute for an official pre-flight weather briefing.

07:47:46 UTC

KJAN METAR
Jackson-Medgar Wiley Evers International Airport
Jackson, Mississippi, USA
Current

54 mins ago

KJAN 150654Z 07005KT 10SM CLR 26/19 A3009 RMK AO2 SLP184 T02560194
Observed
Sep-15 @ 06:54 UTC
Wind
  • 070° at 5 KTS
Visibility
10 SM
Flight Rules
VFR
Cloud Levels
  • Clear skies
Temperature
26°C / 79°F
Dewpoint
19°C / 66°F
Humidity
65%
Altimeter
30.09" Hg
Pressure
1018.92 hPa
Previous

2 hours ago

KJAN 150554Z 06006KT 10SM CLR 26/20 A3009 RMK AO2 SLP185 T02610200 10311 20256 403500222 58001
Observed
Sep-15 @ 05:54 UTC
Wind
  • 060° at 6 KTS
Visibility
10 SM
Flight Rules
VFR
Cloud Levels
  • Clear skies
Temperature
26°C / 79°F
Dewpoint
20°C / 68°F
Humidity
70%
Altimeter
30.09" Hg
Pressure
1018.92 hPa
Previous

3 hours ago

KJAN 150454Z 06005KT 10SM CLR 26/19 A3010 RMK AO2 SLP187 T02610194
Observed
Sep-15 @ 04:54 UTC
Wind
  • 060° at 5 KTS
Visibility
10 SM
Flight Rules
VFR
Cloud Levels
  • Clear skies
Temperature
26°C / 79°F
Dewpoint
19°C / 66°F
Humidity
65%
Altimeter
30.1" Hg
Pressure
1019.32 hPa